createdAt,value
2022-09-13T00:00:04.908Z,86.45
2022-09-13T00:01:05.213Z,86.55
2022-09-13T00:02:05.320Z,86.55
2022-09-13T00:03:05.404Z,86.55
2022-09-13T00:04:05.573Z,86.76
2022-09-13T00:05:05.770Z,86.76
2022-09-13T00:06:05.964Z,86.76
2022-09-13T00:07:06.185Z,86.76
2022-09-13T00:08:06.358Z,86.45
2022-09-13T00:09:06.542Z,86.45
2022-09-13T00:10:06.749Z,86.45
2022-09-13T00:11:06.952Z,86.65
2022-09-13T00:12:07.148Z,86.55
2022-09-13T00:13:07.325Z,86.35
2022-09-13T00:14:07.511Z,86.55
2022-09-13T00:15:07.706Z,86.55
2022-09-13T00:16:07.916Z,86.65
2022-09-13T00:17:08.100Z,86.55
2022-09-13T00:18:08.272Z,86.55
2022-09-13T00:19:08.463Z,86.65
2022-09-13T00:20:08.647Z,86.65
2022-09-13T00:21:08.834Z,86.35
2022-09-13T00:22:09.012Z,86.35
2022-09-13T00:23:09.212Z,86.35
2022-09-13T00:24:09.391Z,86.25
2022-09-13T00:25:09.594Z,86.25
2022-09-13T00:26:09.786Z,86.15
2022-09-13T00:27:09.935Z,86.15
2022-09-13T00:28:11.173Z,86.15
2022-09-13T00:29:10.377Z,86.05
2022-09-13T00:30:10.643Z,85.74
2022-09-13T00:31:10.764Z,85.50
2022-09-13T00:32:10.967Z,85.30
2022-09-13T00:33:11.161Z,85.30
2022-09-13T00:34:11.337Z,85.19
2022-09-13T00:35:11.541Z,85.09
2022-09-13T00:36:11.737Z,85.19
2022-09-13T00:37:11.841Z,85.09
2022-09-13T00:38:12.030Z,85.09
2022-09-13T00:39:12.214Z,85.09
2022-09-13T00:40:12.409Z,84.99
2022-09-13T00:41:12.611Z,85.09
2022-09-13T00:42:12.798Z,85.09
2022-09-13T00:43:13.001Z,85.24
2022-09-13T00:44:13.168Z,85.24
2022-09-13T00:45:13.375Z,85.44
2022-09-13T00:46:13.612Z,85.44
2022-09-13T00:47:13.777Z,85.44
2022-09-13T00:48:13.997Z,85.44
2022-09-13T00:49:14.173Z,85.64
2022-09-13T00:50:14.359Z,85.64
2022-09-13T00:51:14.550Z,85.64
2022-09-13T00:52:14.733Z,85.74
2022-09-13T00:53:14.914Z,85.64
2022-09-13T00:54:15.095Z,85.74
2022-09-13T00:55:15.313Z,85.74
2022-09-13T00:56:15.529Z,85.84
2022-09-13T00:57:15.729Z,85.94
2022-09-13T00:58:15.918Z,85.94
2022-09-13T00:59:16.122Z,86.19
2022-09-13T01:00:16.305Z,86.25
2022-09-13T01:01:16.543Z,86.05
2022-09-13T01:02:16.780Z,86.08
2022-09-13T01:03:16.825Z,86.19
2022-09-13T01:04:17.009Z,86.29
2022-09-13T01:05:17.193Z,86.39
2022-09-13T01:06:17.388Z,86.39
2022-09-13T01:07:17.589Z,86.59
2022-09-13T01:08:17.785Z,86.39
2022-09-13T01:09:17.975Z,86.49
2022-09-13T01:10:18.160Z,86.49
2022-09-13T01:11:18.374Z,86.29
2022-09-13T01:12:18.556Z,86.29
2022-09-13T01:13:18.737Z,86.19
2022-09-13T01:14:18.931Z,86.29
2022-09-13T01:15:19.119Z,86.39
2022-09-13T01:16:19.355Z,86.39
2022-09-13T01:17:19.553Z,86.59
2022-09-13T01:18:19.748Z,86.80
2022-09-13T01:19:19.946Z,86.90
2022-09-13T01:20:20.138Z,86.80
2022-09-13T01:21:20.333Z,86.69
2022-09-13T01:22:20.513Z,86.59
2022-09-13T01:23:20.723Z,86.59
2022-09-13T01:24:20.911Z,86.69
2022-09-13T01:25:21.104Z,86.80
2022-09-13T01:26:21.290Z,86.80
2022-09-13T01:27:21.506Z,87.00
2022-09-13T01:28:21.712Z,86.90
2022-09-13T01:29:21.894Z,86.90
2022-09-13T01:30:22.115Z,87.00
2022-09-13T01:31:22.419Z,86.90
2022-09-13T01:32:22.513Z,87.14
2022-09-13T01:33:22.705Z,87.24
2022-09-13T01:34:22.906Z,87.34
2022-09-13T01:35:23.094Z,87.24
2022-09-13T01:36:23.297Z,87.14
2022-09-13T01:37:23.505Z,87.24
2022-09-13T01:38:23.702Z,87.34
2022-09-13T01:39:23.884Z,87.55
2022-09-13T01:40:24.115Z,87.55
2022-09-13T01:41:24.224Z,87.75
2022-09-13T01:42:24.419Z,87.85
2022-09-13T01:43:24.605Z,87.95
2022-09-13T01:44:24.822Z,87.99
2022-09-13T01:45:25.006Z,87.99
2022-09-13T01:46:25.221Z,88.10
2022-09-13T01:47:25.405Z,88.10
2022-09-13T01:48:25.589Z,88.10
2022-09-13T01:49:25.768Z,87.89
2022-09-13T01:50:25.922Z,88.10
2022-09-13T01:51:26.174Z,88.10
2022-09-13T01:52:26.369Z,88.10
2022-09-13T01:53:26.558Z,88.20
2022-09-13T01:54:26.760Z,88.30
2022-09-13T01:55:26.950Z,88.20
2022-09-13T01:56:27.154Z,88.20
2022-09-13T01:57:27.332Z,88.30
2022-09-13T01:58:27.552Z,88.30
2022-09-13T01:59:27.756Z,88.30
2022-09-13T02:00:27.914Z,88.40
2022-09-13T02:01:28.143Z,88.71
2022-09-13T02:02:28.358Z,88.50
2022-09-13T02:03:28.529Z,88.50
2022-09-13T02:04:28.735Z,88.40
2022-09-13T02:05:28.926Z,88.40
2022-09-13T02:06:29.140Z,88.40
2022-09-13T02:07:29.345Z,88.50
2022-09-13T02:08:29.540Z,88.75
2022-09-13T02:09:29.748Z,88.95
2022-09-13T02:10:29.942Z,88.95
2022-09-13T02:11:30.157Z,88.81
2022-09-13T02:12:30.346Z,88.60
2022-09-13T02:13:30.562Z,88.50
2022-09-13T02:14:30.744Z,88.60
2022-09-13T02:15:30.926Z,88.60
2022-09-13T02:16:31.172Z,88.71
2022-09-13T02:17:31.256Z,88.71
2022-09-13T02:18:31.439Z,88.75
2022-09-13T02:19:31.619Z,88.85
2022-09-13T02:20:31.814Z,88.95
2022-09-13T02:21:32.006Z,88.71
2022-09-13T02:22:32.200Z,88.75
2022-09-13T02:23:32.374Z,88.65
2022-09-13T02:24:32.565Z,88.81
2022-09-13T02:25:32.750Z,88.50
2022-09-13T02:26:32.956Z,88.60
2022-09-13T02:27:33.127Z,88.60
2022-09-13T02:28:33.336Z,88.85
2022-09-13T02:29:33.538Z,88.75
2022-09-13T02:30:33.741Z,88.75
2022-09-13T02:31:34.002Z,88.85
2022-09-13T02:32:34.177Z,89.05
2022-09-13T02:33:34.365Z,89.15
2022-09-13T02:34:34.606Z,89.15
2022-09-13T02:35:34.772Z,89.15
2022-09-13T02:36:34.967Z,89.26
2022-09-13T02:37:35.152Z,89.26
2022-09-13T02:38:35.327Z,89.15
2022-09-13T02:39:35.523Z,89.36
2022-09-13T02:40:35.705Z,89.36
2022-09-13T02:41:35.915Z,89.36
2022-09-13T02:42:36.093Z,89.26
2022-09-13T02:43:36.345Z,89.26
2022-09-13T02:44:36.442Z,89.15
2022-09-13T02:45:36.683Z,89.15
2022-09-13T02:46:36.894Z,89.26
2022-09-13T02:47:37.093Z,89.15
2022-09-13T02:48:37.541Z,89.26
2022-09-13T02:49:37.461Z,89.26
2022-09-13T02:50:37.650Z,89.26
2022-09-13T02:51:37.868Z,89.36
2022-09-13T02:52:38.061Z,89.46
2022-09-13T02:53:38.259Z,89.26
2022-09-13T02:54:38.474Z,89.15
2022-09-13T02:55:38.647Z,89.26
2022-09-13T02:56:38.869Z,89.15
2022-09-13T02:57:39.058Z,89.15
2022-09-13T02:58:39.239Z,89.05
2022-09-13T02:59:39.418Z,88.95
2022-09-13T03:00:39.664Z,88.85
2022-09-13T03:01:39.828Z,88.85
2022-09-13T03:02:40.003Z,88.85
2022-09-13T03:03:40.187Z,88.95
2022-09-13T03:04:40.361Z,88.95
2022-09-13T03:05:40.537Z,88.85
2022-09-13T03:06:40.747Z,88.95
2022-09-13T03:07:40.925Z,88.85
2022-09-13T03:08:41.102Z,88.85
2022-09-13T03:09:41.283Z,88.75
2022-09-13T03:10:41.476Z,89.05
2022-09-13T03:11:41.710Z,88.85
2022-09-13T03:12:41.857Z,88.85
2022-09-13T03:13:42.077Z,89.05
2022-09-13T03:14:42.271Z,89.05
2022-09-13T03:15:42.480Z,89.15
2022-09-13T03:16:42.757Z,89.05
2022-09-13T03:17:42.869Z,88.95
2022-09-13T03:18:43.050Z,88.95
2022-09-13T03:19:43.224Z,88.85
2022-09-13T03:20:43.411Z,88.85
2022-09-13T03:21:43.610Z,88.95
2022-09-13T03:22:43.797Z,89.15
2022-09-13T03:23:43.995Z,89.15
2022-09-13T03:24:44.170Z,89.26
2022-09-13T03:25:44.351Z,89.30
2022-09-13T03:26:44.554Z,89.40
2022-09-13T03:27:44.748Z,89.40
2022-09-13T03:28:44.931Z,89.40
2022-09-13T03:29:45.103Z,89.50
2022-09-13T03:30:45.285Z,89.61
2022-09-13T03:31:45.530Z,89.81
2022-09-13T03:32:45.691Z,89.70
2022-09-13T03:33:45.880Z,89.70
2022-09-13T03:34:46.064Z,89.61
2022-09-13T03:35:46.240Z,89.81
2022-09-13T03:36:46.461Z,89.81
2022-09-13T03:37:46.639Z,89.81
2022-09-13T03:38:46.832Z,89.91
2022-09-13T03:39:47.062Z,89.91
2022-09-13T03:40:47.192Z,89.91
2022-09-13T03:41:47.401Z,90.01
2022-09-13T03:42:47.579Z,90.11
2022-09-13T03:43:47.761Z,90.11
2022-09-13T03:44:47.955Z,90.01
2022-09-13T03:45:48.191Z,90.11
2022-09-13T03:46:48.464Z,90.31
2022-09-13T03:47:48.505Z,90.22
2022-09-13T03:48:48.770Z,90.31
2022-09-13T03:49:48.880Z,90.31
2022-09-13T03:50:49.060Z,90.52
2022-09-13T03:51:49.270Z,90.42
2022-09-13T03:52:49.461Z,90.42
2022-09-13T03:53:49.629Z,90.42
2022-09-13T03:54:49.816Z,90.31
2022-09-13T03:55:49.996Z,90.42
2022-09-13T03:56:50.190Z,90.52
2022-09-13T03:57:50.400Z,90.62
2022-09-13T03:58:50.584Z,90.62
2022-09-13T03:59:50.787Z,90.62
2022-09-13T04:00:50.991Z,90.62
2022-09-13T04:01:51.249Z,90.62
2022-09-13T04:02:51.336Z,90.62
2022-09-13T04:03:56.390Z,90.52
2022-09-13T04:04:52.779Z,90.42
2022-09-13T04:05:51.869Z,90.52
2022-09-13T04:06:52.116Z,90.42
2022-09-13T04:07:52.200Z,90.52
2022-09-13T04:08:52.437Z,90.52
2022-09-13T04:09:52.649Z,90.42
2022-09-13T04:10:52.861Z,90.31
2022-09-13T04:11:53.097Z,90.31
2022-09-13T04:12:53.319Z,90.31
2022-09-13T04:13:53.522Z,90.22
2022-09-13T04:14:53.761Z,90.22
2022-09-13T04:15:53.875Z,90.22
2022-09-13T04:16:54.129Z,90.01
2022-09-13T04:17:54.227Z,89.87
2022-09-13T04:18:54.448Z,89.87
2022-09-13T04:19:54.676Z,89.76
2022-09-13T04:20:54.876Z,89.76
2022-09-13T04:21:55.146Z,89.76
2022-09-13T04:22:55.218Z,89.76
2022-09-13T04:23:55.412Z,89.76
2022-09-13T04:24:59.089Z,89.76
2022-09-13T04:25:56.732Z,89.66
2022-09-13T04:26:55.950Z,89.46
2022-09-13T04:27:56.138Z,89.46
2022-09-13T04:28:56.365Z,89.46
2022-09-13T04:29:56.494Z,89.36
2022-09-13T04:30:56.672Z,89.36
2022-09-13T04:31:56.940Z,89.36
2022-09-13T04:32:57.005Z,89.46
2022-09-13T04:33:57.177Z,89.36
2022-09-13T04:34:57.373Z,89.26
2022-09-13T04:35:57.570Z,89.15
2022-09-13T04:36:57.794Z,89.15
2022-09-13T04:37:58.019Z,89.15
2022-09-13T04:38:58.197Z,89.15
2022-09-13T04:39:58.401Z,89.15
2022-09-13T04:40:58.563Z,89.26
2022-09-13T04:41:58.761Z,89.26
2022-09-13T04:42:58.946Z,89.36
2022-09-13T04:43:59.132Z,89.36
2022-09-13T04:44:59.342Z,89.36
2022-09-13T04:45:59.616Z,89.36
2022-09-13T04:46:59.688Z,89.26
2022-09-13T04:47:59.851Z,89.26
2022-09-13T04:49:00.084Z,89.31
2022-09-13T04:50:00.244Z,89.15
2022-09-13T04:51:00.438Z,89.01
2022-09-13T04:52:00.653Z,89.01
2022-09-13T04:53:00.836Z,89.11
2022-09-13T04:54:01.035Z,89.01
2022-09-13T04:55:01.200Z,89.15
2022-09-13T04:56:01.369Z,89.11
2022-09-13T04:57:01.566Z,88.91
2022-09-13T04:58:01.741Z,88.81
2022-09-13T04:59:01.942Z,88.81
2022-09-13T05:00:02.125Z,88.71
2022-09-13T05:01:02.421Z,88.81
2022-09-13T05:02:02.559Z,88.81
2022-09-13T05:03:02.715Z,88.81
2022-09-13T05:04:02.900Z,88.81
2022-09-13T05:05:03.090Z,88.71
2022-09-13T05:06:03.285Z,88.60
2022-09-13T05:07:03.495Z,88.60
2022-09-13T05:08:03.668Z,88.60
2022-09-13T05:09:03.868Z,88.71
2022-09-13T05:10:04.073Z,88.81
2022-09-13T05:11:04.243Z,88.81
2022-09-13T05:12:04.448Z,88.91
2022-09-13T05:13:04.634Z,89.01
2022-09-13T05:14:04.834Z,89.11
2022-09-13T05:15:05.005Z,89.11
2022-09-13T05:16:05.244Z,89.11
2022-09-13T05:17:05.369Z,89.11
2022-09-13T05:18:05.665Z,89.01
2022-09-13T05:19:05.693Z,89.11
2022-09-13T05:20:05.876Z,89.11
2022-09-13T05:21:06.064Z,88.71
2022-09-13T05:22:06.269Z,88.71
2022-09-13T05:23:06.456Z,88.71
2022-09-13T05:24:06.651Z,88.71
2022-09-13T05:25:06.828Z,88.71
2022-09-13T05:26:07.008Z,88.76
2022-09-13T05:27:07.216Z,88.71
2022-09-13T05:28:07.428Z,88.56
2022-09-13T05:29:07.595Z,88.60
2022-09-13T05:30:07.788Z,88.91
2022-09-13T05:31:08.011Z,89.01
2022-09-13T05:32:15.211Z,88.56
2022-09-13T05:33:08.359Z,88.46
2022-09-13T05:34:08.536Z,88.56
2022-09-13T05:35:08.714Z,88.56
2022-09-13T05:36:08.884Z,88.67
2022-09-13T05:37:09.055Z,88.67
2022-09-13T05:38:09.230Z,88.67
2022-09-13T05:40:11.964Z,88.76
2022-09-13T05:41:09.675Z,88.87
2022-09-13T05:42:09.854Z,88.76
2022-09-13T05:43:10.047Z,88.67
2022-09-13T05:44:13.320Z,88.67
2022-09-13T05:45:10.367Z,88.76
2022-09-13T05:46:10.562Z,89.07
2022-09-13T05:47:10.718Z,89.78
2022-09-13T05:48:10.905Z,89.78
2022-09-13T05:49:11.077Z,89.98
2022-09-13T05:50:22.927Z,90.80
2022-09-13T05:51:12.353Z,90.90
2022-09-13T05:52:11.537Z,92.12
2022-09-13T05:53:11.721Z,91.96
2022-09-13T05:54:11.897Z,93.18
2022-09-13T05:55:12.069Z,93.48
2022-09-13T05:56:16.304Z,94.50
2022-09-13T05:57:12.409Z,94.60
2022-09-13T05:58:12.605Z,94.64
2022-09-13T05:59:12.779Z,95.46
2022-09-13T06:00:12.973Z,95.46
2022-09-13T06:01:13.150Z,96.17
2022-09-13T06:02:13.380Z,96.88
2022-09-13T06:03:13.577Z,97.60
2022-09-13T06:04:13.746Z,98.10
2022-09-13T06:05:13.926Z,97.89
2022-09-13T06:06:14.110Z,98.20
2022-09-13T06:07:14.295Z,98.61
2022-09-13T06:08:14.493Z,98.91
2022-09-13T06:09:14.677Z,99.16
2022-09-13T06:10:14.838Z,99.37
2022-09-13T06:11:15.024Z,99.67
2022-09-13T06:12:15.200Z,99.88
2022-09-13T06:13:15.400Z,99.88
2022-09-13T06:14:15.580Z,99.99
2022-09-13T06:15:15.768Z,99.99
2022-09-13T06:16:16.141Z,99.99
2022-09-13T06:17:16.135Z,99.99
2022-09-13T06:18:16.356Z,99.99
2022-09-13T06:19:16.520Z,99.99
2022-09-13T06:20:16.715Z,99.99
2022-09-13T06:21:16.882Z,99.99
2022-09-13T06:22:17.058Z,99.99
2022-09-13T06:23:17.250Z,99.99
2022-09-13T06:24:17.433Z,99.99
2022-09-13T06:25:17.592Z,99.99
2022-09-13T06:26:17.813Z,99.99
2022-09-13T06:27:17.967Z,99.99
2022-09-13T06:28:20.691Z,99.99
2022-09-13T06:29:18.315Z,99.99
2022-09-13T06:30:18.510Z,99.99
2022-09-13T06:31:18.727Z,99.99
2022-09-13T06:32:18.918Z,99.99
2022-09-13T06:33:19.109Z,99.99
2022-09-13T06:34:19.288Z,99.99
2022-09-13T06:35:19.470Z,99.99
2022-09-13T06:36:19.651Z,99.99
2022-09-13T06:37:19.821Z,99.99
2022-09-13T06:38:20.018Z,99.99
2022-09-13T06:39:20.200Z,99.99
2022-09-13T06:40:24.942Z,99.99
2022-09-13T06:41:20.526Z,99.99
2022-09-13T06:42:20.698Z,99.99
2022-09-13T06:43:20.914Z,99.99
2022-09-13T06:44:21.087Z,99.99
2022-09-13T06:45:21.257Z,99.99
2022-09-13T06:46:24.989Z,99.99
2022-09-13T06:47:21.550Z,99.99
2022-09-13T06:48:21.741Z,99.99
2022-09-13T06:49:21.910Z,99.99
2022-09-13T06:50:22.089Z,99.99
2022-09-13T06:51:22.257Z,99.99
2022-09-13T06:52:22.427Z,99.99
2022-09-13T06:53:22.614Z,99.99
2022-09-13T06:54:22.790Z,99.99
2022-09-13T06:55:22.960Z,99.99
2022-09-13T06:56:23.146Z,99.99
2022-09-13T06:57:23.317Z,99.99
2022-09-13T06:58:23.518Z,99.99
2022-09-13T06:59:23.677Z,99.99
2022-09-13T07:00:23.855Z,99.94
2022-09-13T07:01:24.144Z,99.99
2022-09-13T07:02:24.253Z,99.99
2022-09-13T07:03:24.436Z,99.99
2022-09-13T07:04:24.605Z,99.69
2022-09-13T07:05:24.786Z,99.58
2022-09-13T07:06:24.965Z,99.18
2022-09-13T07:07:25.145Z,98.93
2022-09-13T07:08:25.335Z,98.43
2022-09-13T07:09:25.501Z,98.22
2022-09-13T07:10:25.675Z,98.99
2022-09-13T07:11:25.826Z,98.07
2022-09-13T07:12:25.996Z,97.41
2022-09-13T07:13:26.168Z,97.97
2022-09-13T07:14:26.328Z,97.97
2022-09-13T07:15:26.483Z,98.07
2022-09-13T07:16:26.643Z,98.18
2022-09-13T07:17:31.194Z,98.58
2022-09-13T07:18:26.955Z,97.56
2022-09-13T07:19:27.132Z,97.31
2022-09-13T07:20:27.275Z,96.90
2022-09-13T07:21:27.429Z,97.00
2022-09-13T07:22:27.598Z,96.90
2022-09-13T07:23:27.764Z,96.80
2022-09-13T07:24:27.929Z,97.20
2022-09-13T07:25:28.078Z,97.31
2022-09-13T07:26:28.240Z,97.71
2022-09-13T07:27:28.399Z,97.97
2022-09-13T07:28:32.270Z,97.26
2022-09-13T07:29:29.703Z,97.56
2022-09-13T07:30:28.882Z,97.67
2022-09-13T07:31:29.107Z,97.47
2022-09-13T07:32:29.261Z,97.72
2022-09-13T07:33:29.430Z,97.42
2022-09-13T07:34:29.623Z,96.81
2022-09-13T07:35:29.794Z,97.32
2022-09-13T07:36:29.942Z,97.02
2022-09-13T07:37:30.097Z,96.20
2022-09-13T07:38:30.247Z,95.79
2022-09-13T07:39:30.390Z,95.55
2022-09-13T07:40:30.546Z,95.45
2022-09-13T07:41:30.701Z,95.45
2022-09-13T07:42:30.849Z,95.55
2022-09-13T07:43:31.032Z,95.55
2022-09-13T07:44:31.190Z,95.65
2022-09-13T07:45:31.345Z,95.40
2022-09-13T07:46:31.541Z,95.91
2022-09-13T07:47:31.670Z,95.20
2022-09-13T07:48:33.657Z,94.43
2022-09-13T07:49:32.008Z,93.93
2022-09-13T07:50:32.170Z,94.13
2022-09-13T07:51:32.327Z,94.79
2022-09-13T07:52:32.466Z,94.70
2022-09-13T07:53:32.635Z,94.49
2022-09-13T07:54:32.784Z,94.90
2022-09-13T07:55:32.936Z,94.59
2022-09-13T07:56:33.079Z,94.04
2022-09-13T07:57:33.228Z,93.74
2022-09-13T07:58:33.416Z,93.43
2022-09-13T07:59:33.564Z,93.13
2022-09-13T08:00:33.708Z,92.93
2022-09-13T08:01:33.943Z,93.54
2022-09-13T08:02:34.077Z,93.13
2022-09-13T08:03:34.177Z,93.43
2022-09-13T08:04:36.434Z,93.74
2022-09-13T08:05:34.525Z,93.33
2022-09-13T08:06:34.688Z,93.70
2022-09-13T08:07:34.844Z,92.68
2022-09-13T08:08:35.024Z,93.29
2022-09-13T08:09:35.188Z,93.13
2022-09-13T08:10:35.349Z,93.03
2022-09-13T08:11:35.652Z,92.72
2022-09-13T08:12:35.620Z,93.33
2022-09-13T08:13:35.798Z,92.72
2022-09-13T08:14:35.947Z,92.93
2022-09-13T08:15:36.133Z,92.93
2022-09-13T08:16:36.277Z,93.03
2022-09-13T08:17:36.428Z,93.29
2022-09-13T08:18:36.601Z,93.39
2022-09-13T08:19:36.757Z,93.39
2022-09-13T08:20:36.920Z,92.33
2022-09-13T08:21:37.098Z,92.33
2022-09-13T08:22:37.258Z,92.44
2022-09-13T08:23:37.516Z,91.32
2022-09-13T08:24:37.554Z,91.32
2022-09-13T08:25:37.711Z,90.58
2022-09-13T08:26:37.873Z,90.33
2022-09-13T08:27:38.027Z,89.83
2022-09-13T08:28:38.197Z,89.32
2022-09-13T08:29:38.344Z,90.07
2022-09-13T08:30:38.517Z,90.27
2022-09-13T08:31:38.679Z,90.07
2022-09-13T08:32:38.820Z,90.17
2022-09-13T08:33:41.062Z,91.08
2022-09-13T08:34:40.093Z,90.67
2022-09-13T08:35:39.229Z,90.67
2022-09-13T08:36:39.395Z,91.49
2022-09-13T08:37:39.529Z,90.67
2022-09-13T08:38:39.708Z,90.47
2022-09-13T08:39:39.920Z,90.37
2022-09-13T08:40:39.985Z,89.92
2022-09-13T08:41:40.157Z,90.12
2022-09-13T08:42:40.294Z,90.08
2022-09-13T08:43:40.467Z,89.03
2022-09-13T08:44:40.605Z,88.99
2022-09-13T08:45:40.759Z,88.24
2022-09-13T08:46:40.974Z,87.54
2022-09-13T08:47:41.095Z,86.33
2022-09-13T08:48:41.276Z,86.69
2022-09-13T08:49:41.413Z,85.54
2022-09-13T08:50:41.555Z,83.99
2022-09-13T08:51:41.699Z,83.32
2022-09-13T08:52:41.831Z,83.62
2022-09-13T08:53:42.092Z,83.99
2022-09-13T08:54:42.148Z,82.10
2022-09-13T08:55:42.282Z,80.11
2022-09-13T08:56:42.415Z,79.85
2022-09-13T08:57:42.544Z,81.26
2022-09-13T08:58:42.682Z,81.46
2022-09-13T08:59:42.808Z,81.35
2022-09-13T09:00:42.944Z,80.65
2022-09-13T09:01:43.130Z,81.92
2022-09-13T09:02:43.268Z,80.11
2022-09-13T09:03:43.403Z,80.01
2022-09-13T09:04:43.537Z,80.55
2022-09-13T09:05:43.674Z,80.55
2022-09-13T09:06:43.782Z,80.69
2022-09-13T09:07:43.906Z,81.19
2022-09-13T09:08:44.052Z,81.15
2022-09-13T09:09:44.173Z,80.69
2022-09-13T09:10:44.314Z,80.85
2022-09-13T09:11:44.439Z,80.91
2022-09-13T09:12:44.573Z,78.93
2022-09-13T09:13:44.689Z,78.25
2022-09-13T09:14:44.809Z,76.41
2022-09-13T09:15:44.955Z,75.17
2022-09-13T09:16:45.052Z,75.71
2022-09-13T09:17:45.147Z,76.31
2022-09-13T09:18:45.284Z,75.71
2022-09-13T09:19:45.429Z,75.27
2022-09-13T09:20:45.544Z,75.26
2022-09-13T09:21:45.642Z,71.92
2022-09-13T09:22:45.745Z,70.69
2022-09-13T09:23:45.913Z,70.76
2022-09-13T09:24:45.909Z,68.70
2022-09-13T09:25:46.021Z,69.86
2022-09-13T09:26:46.118Z,70.03
2022-09-13T09:27:46.212Z,70.03
2022-09-13T09:28:46.335Z,69.32
2022-09-13T09:29:46.453Z,68.93
2022-09-13T09:30:46.565Z,67.27
2022-09-13T09:31:46.541Z,67.10
2022-09-13T09:32:46.613Z,67.43
2022-09-13T09:33:46.701Z,68.43
2022-09-13T09:34:46.775Z,70.19
2022-09-13T09:35:46.857Z,69.73
2022-09-13T09:36:46.936Z,69.49
2022-09-13T09:37:47.012Z,69.49
2022-09-13T09:38:47.107Z,69.32
2022-09-13T09:39:47.251Z,68.46
2022-09-13T09:40:47.234Z,68.06
2022-09-13T09:41:47.335Z,67.76
2022-09-13T09:42:47.424Z,68.76
2022-09-13T09:43:47.607Z,68.46
2022-09-13T09:44:47.585Z,68.56
2022-09-13T09:45:47.691Z,69.53
2022-09-13T09:46:47.760Z,70.62
2022-09-13T09:47:47.839Z,70.72
2022-09-13T09:48:47.955Z,70.29
2022-09-13T09:49:48.035Z,69.93
2022-09-13T09:50:48.113Z,70.72
2022-09-13T09:51:48.191Z,70.36
2022-09-13T09:52:48.283Z,71.16
2022-09-13T09:53:48.495Z,71.22
2022-09-13T09:54:48.434Z,70.03
2022-09-13T09:55:48.525Z,69.99
2022-09-13T09:56:48.614Z,69.49
2022-09-13T09:57:48.705Z,67.96
2022-09-13T09:58:48.804Z,68.46
2022-09-13T09:59:48.915Z,68.30
2022-09-13T10:00:49.002Z,65.94
2022-09-13T10:01:49.171Z,65.54
2022-09-13T10:02:49.223Z,65.64
2022-09-13T10:03:49.408Z,65.94
2022-09-13T10:04:49.319Z,65.58
2022-09-13T10:05:49.397Z,62.83
2022-09-13T10:06:49.459Z,63.39
2022-09-13T10:07:49.526Z,63.56
2022-09-13T10:08:49.603Z,64.18
2022-09-13T10:09:49.673Z,63.06
2022-09-13T10:10:49.730Z,62.10
2022-09-13T10:11:49.803Z,61.55
2022-09-13T10:12:49.863Z,59.66
2022-09-13T10:13:49.990Z,61.35
2022-09-13T10:14:50.001Z,60.46
2022-09-13T10:15:50.054Z,61.91
2022-09-13T10:16:50.203Z,61.08
2022-09-13T10:17:50.107Z,60.88
2022-09-13T10:18:50.181Z,62.26
2022-09-13T10:19:50.237Z,63.72
2022-09-13T10:20:50.287Z,65.54
2022-09-13T10:21:50.342Z,65.94
2022-09-13T10:22:50.396Z,65.80
2022-09-13T10:23:50.548Z,67.63
2022-09-13T10:24:50.480Z,67.53
2022-09-13T10:25:50.561Z,68.26
2022-09-13T10:26:50.617Z,67.90
2022-09-13T10:27:50.717Z,69.43
2022-09-13T10:28:50.825Z,69.46
2022-09-13T10:29:50.918Z,71.09
2022-09-13T10:30:51.053Z,71.53
2022-09-13T10:31:51.055Z,72.26
2022-09-13T10:32:51.143Z,72.46
2022-09-13T10:33:51.262Z,73.16
2022-09-13T10:34:51.348Z,72.96
2022-09-13T10:35:51.464Z,72.33
2022-09-13T10:36:53.207Z,71.83
2022-09-13T10:37:51.670Z,72.13
2022-09-13T10:38:51.855Z,72.16
2022-09-13T10:39:51.864Z,73.46
2022-09-13T10:40:51.876Z,73.60
2022-09-13T10:41:51.987Z,73.90
2022-09-13T10:42:52.097Z,74.30
2022-09-13T10:43:52.227Z,73.19
2022-09-13T10:44:52.345Z,73.60
2022-09-13T10:45:52.484Z,73.93
2022-09-13T10:46:52.572Z,73.93
2022-09-13T10:47:52.670Z,74.30
2022-09-13T10:48:52.824Z,73.80
2022-09-13T10:49:53.006Z,73.36
2022-09-13T10:50:53.007Z,73.46
2022-09-13T10:51:53.130Z,72.76
2022-09-13T10:52:53.258Z,72.86
2022-09-13T10:53:53.395Z,74.16
2022-09-13T10:54:53.527Z,73.60
2022-09-13T10:55:53.642Z,74.20
2022-09-13T10:56:53.776Z,74.30
2022-09-13T10:57:53.898Z,74.80
2022-09-13T10:58:54.031Z,74.63
2022-09-13T10:59:54.148Z,75.13
2022-09-13T11:00:54.297Z,75.54
2022-09-13T11:01:54.432Z,75.84
2022-09-13T11:02:54.554Z,76.07
2022-09-13T11:03:54.784Z,76.78
2022-09-13T11:04:54.796Z,76.28
2022-09-13T11:05:54.925Z,76.78
2022-09-13T11:06:58.489Z,77.87
2022-09-13T11:07:56.121Z,78.02
2022-09-13T11:08:55.269Z,77.51
2022-09-13T11:09:55.394Z,77.61
2022-09-13T11:10:55.528Z,78.11
2022-09-13T11:11:55.670Z,78.22
2022-09-13T11:12:55.798Z,78.25
2022-09-13T11:13:55.940Z,78.81
2022-09-13T11:14:56.119Z,78.92
2022-09-13T11:15:56.247Z,78.31
2022-09-13T11:16:56.397Z,78.75
2022-09-13T11:17:56.541Z,81.06
2022-09-13T11:18:56.675Z,81.26
2022-09-13T11:19:57.322Z,82.46
2022-09-13T11:20:56.886Z,82.70
2022-09-13T11:21:57.004Z,83.85
2022-09-13T11:22:57.135Z,84.05
2022-09-13T11:23:57.287Z,84.75
2022-09-13T11:24:57.417Z,85.80
2022-09-13T11:25:57.557Z,86.30
2022-09-13T11:26:57.677Z,87.55
2022-09-13T11:27:57.807Z,88.05
2022-09-13T11:28:57.946Z,88.59
2022-09-13T11:29:58.078Z,89.10
2022-09-13T11:30:58.206Z,89.10
2022-09-13T11:31:58.482Z,89.24
2022-09-13T11:33:55.173Z,89.40
2022-09-13T11:34:55.341Z,89.10
2022-09-13T11:35:55.503Z,88.90
2022-09-13T11:36:55.659Z,89.00
2022-09-13T11:37:55.823Z,89.20
2022-09-13T11:38:55.972Z,89.00
2022-09-13T11:39:56.215Z,89.20
2022-09-13T11:40:56.231Z,89.20
2022-09-13T11:41:57.695Z,89.30
2022-09-13T11:42:56.530Z,89.00
2022-09-13T11:43:56.672Z,89.00
2022-09-13T11:44:56.845Z,89.10
2022-09-13T11:45:57.156Z,89.60
2022-09-13T11:46:57.112Z,89.40
2022-09-13T11:47:57.294Z,89.60
2022-09-13T11:48:57.450Z,89.64
2022-09-13T11:49:57.645Z,89.95
2022-09-13T11:50:57.840Z,90.15
2022-09-13T11:51:57.993Z,89.95
2022-09-13T11:52:58.157Z,90.20
2022-09-13T11:53:58.320Z,90.00
2022-09-13T11:54:58.524Z,89.90
2022-09-13T11:55:58.672Z,89.90
2022-09-13T11:56:58.829Z,89.40
2022-09-13T11:57:59.013Z,89.26
2022-09-13T11:58:59.172Z,88.75
2022-09-13T11:59:59.415Z,88.95
2022-09-13T12:00:59.440Z,88.85
2022-09-13T12:01:59.644Z,87.95
2022-09-13T12:02:59.872Z,88.25
2022-09-13T12:03:59.861Z,88.45
2022-09-13T12:05:21.170Z,87.95
2022-09-13T12:06:01.191Z,88.45
2022-09-13T12:07:00.331Z,88.75
2022-09-13T12:08:00.491Z,90.16
2022-09-13T12:09:00.652Z,89.51
2022-09-13T12:10:00.847Z,88.25
2022-09-13T12:11:00.921Z,88.15
2022-09-13T12:12:01.068Z,88.35
2022-09-13T12:13:01.233Z,88.01
2022-09-13T12:14:01.387Z,88.01
2022-09-13T12:15:01.558Z,86.80
2022-09-13T12:16:01.712Z,86.90
2022-09-13T12:17:01.905Z,87.01
2022-09-13T12:18:02.070Z,86.50
2022-09-13T12:19:02.281Z,86.76
2022-09-13T12:20:02.483Z,86.06
2022-09-13T12:21:02.544Z,85.86
2022-09-13T12:22:02.734Z,85.36
2022-09-13T12:23:02.870Z,84.75
2022-09-13T12:24:03.072Z,85.16
2022-09-13T12:25:03.249Z,85.56
2022-09-13T12:26:03.411Z,85.90
2022-09-13T12:27:03.563Z,86.10
2022-09-13T12:28:03.711Z,86.30
2022-09-13T12:29:03.892Z,86.20
2022-09-13T12:30:04.103Z,86.20
2022-09-13T12:31:04.182Z,85.90
2022-09-13T12:32:04.363Z,86.20
2022-09-13T12:33:04.492Z,86.20
2022-09-13T12:34:04.652Z,86.50
2022-09-13T12:35:04.829Z,86.54
2022-09-13T12:36:04.996Z,86.54
2022-09-13T12:37:05.152Z,87.04
2022-09-13T12:38:05.299Z,86.70
2022-09-13T12:39:05.449Z,86.70
2022-09-13T12:40:05.683Z,86.30
2022-09-13T12:41:05.787Z,86.40
2022-09-13T12:42:05.950Z,86.10
2022-09-13T12:43:06.131Z,85.90
2022-09-13T12:44:06.284Z,86.30
2022-09-13T12:45:06.453Z,86.30
2022-09-13T12:46:06.681Z,86.50
2022-09-13T12:47:06.728Z,86.00
2022-09-13T12:48:06.880Z,86.30
2022-09-13T12:49:07.030Z,86.10
2022-09-13T12:50:41.455Z,86.00
2022-09-13T12:51:08.314Z,86.30
2022-09-13T12:52:07.488Z,86.40
2022-09-13T12:53:07.665Z,86.26
2022-09-13T12:54:07.820Z,85.05
2022-09-13T12:55:19.601Z,85.56
2022-09-13T12:56:09.103Z,85.25